sensor_id;sensor_type;location;lat;lon;timestamp;temperature;humidity
7518;DHT22;3800;48.922;9.444;2023-04-07T00:00:37;6.80;99.90
7518;DHT22;3800;48.922;9.444;2023-04-07T00:03:06;6.80;99.90
7518;DHT22;3800;48.922;9.444;2023-04-07T00:05:35;6.80;99.90
7518;DHT22;3800;48.922;9.444;2023-04-07T00:08:03;6.80;99.90
7518;DHT22;3800;48.922;9.444;2023-04-07T00:10:31;6.80;99.90
7518;DHT22;3800;48.922;9.444;2023-04-07T00:13:00;6.80;99.90
7518;DHT22;3800;48.922;9.444;2023-04-07T00:15:28;6.80;99.90
7518;DHT22;3800;48.922;9.444;2023-04-07T00:17:56;6.70;99.90
7518;DHT22;3800;48.922;9.444;2023-04-07T00:20:24;6.70;99.90
7518;DHT22;3800;48.922;9.444;2023-04-07T00:22:53;6.70;99.90
7518;DHT22;3800;48.922;9.444;2023-04-07T00:25:21;6.70;99.90
7518;DHT22;3800;48.922;9.444;2023-04-07T00:27:49;6.70;99.90
7518;DHT22;3800;48.922;9.444;2023-04-07T00:30:17;6.70;99.90
7518;DHT22;3800;48.922;9.444;2023-04-07T00:32:46;6.60;99.90
7518;DHT22;3800;48.922;9.444;2023-04-07T00:35:14;6.60;99.90
7518;DHT22;3800;48.922;9.444;2023-04-07T00:37:42;6.60;99.90
7518;DHT22;3800;48.922;9.444;2023-04-07T00:40:10;6.60;99.90
7518;DHT22;3800;48.922;9.444;2023-04-07T00:42:39;6.50;99.90
7518;DHT22;3800;48.922;9.444;2023-04-07T00:45:07;6.50;99.90
7518;DHT22;3800;48.922;9.444;2023-04-07T00:47:36;6.50;99.90
7518;DHT22;3800;48.922;9.444;2023-04-07T00:50:04;6.40;99.90
7518;DHT22;3800;48.922;9.444;2023-04-07T00:52:33;6.40;99.90
7518;DHT22;3800;48.922;9.444;2023-04-07T00:55:01;6.40;99.90
7518;DHT22;3800;48.922;9.444;2023-04-07T00:57:30;6.40;99.90
7518;DHT22;3800;48.922;9.444;2023-04-07T00:59:59;6.40;99.90
7518;DHT22;3800;48.922;9.444;2023-04-07T01:02:31;6.40;99.90
7518;DHT22;3800;48.922;9.444;2023-04-07T01:05:17;6.40;99.90
7518;DHT22;3800;48.922;9.444;2023-04-07T01:10:55;6.40;99.90
7518;DHT22;3800;48.922;9.444;2023-04-07T01:13:37;6.40;99.90
7518;DHT22;3800;48.922;9.444;2023-04-07T01:16:09;6.40;99.90
7518;DHT22;3800;48.922;9.444;2023-04-07T01:18:37;6.40;99.90
7518;DHT22;3800;48.922;9.444;2023-04-07T01:21:08;6.40;99.90
7518;DHT22;3800;48.922;9.444;2023-04-07T01:26:20;6.30;99.90
7518;DHT22;3800;48.922;9.444;2023-04-07T01:29:03;6.30;99.90
7518;DHT22;3800;48.922;9.444;2023-04-07T01:31:49;6.30;99.90
7518;DHT22;3800;48.922;9.444;2023-04-07T01:34:17;6.40;99.90
7518;DHT22;3800;48.922;9.444;2023-04-07T01:36:45;6.40;99.90
7518;DHT22;3800;48.922;9.444;2023-04-07T01:39:14;6.40;99.90
7518;DHT22;3800;48.922;9.444;2023-04-07T01:41:42;6.40;99.90
7518;DHT22;3800;48.922;9.444;2023-04-07T01:44:10;6.40;99.90
7518;DHT22;3800;48.922;9.444;2023-04-07T01:46:38;6.40;99.90
7518;DHT22;3800;48.922;9.444;2023-04-07T01:49:07;6.40;99.90
7518;DHT22;3800;48.922;9.444;2023-04-07T01:51:35;6.40;99.90
7518;DHT22;3800;48.922;9.444;2023-04-07T01:54:03;6.40;99.90
7518;DHT22;3800;48.922;9.444;2023-04-07T01:56:32;6.50;99.90
7518;DHT22;3800;48.922;9.444;2023-04-07T01:59:00;6.50;99.90
7518;DHT22;3800;48.922;9.444;2023-04-07T02:01:28;6.50;99.90
7518;DHT22;3800;48.922;9.444;2023-04-07T02:04:06;6.40;99.90
7518;DHT22;3800;48.922;9.444;2023-04-07T02:06:36;6.40;99.90
7518;DHT22;3800;48.922;9.444;2023-04-07T02:09:03;6.50;99.90
7518;DHT22;3800;48.922;9.444;2023-04-07T02:11:32;6.50;99.90
7518;DHT22;3800;48.922;9.444;2023-04-07T02:14:00;6.50;99.90
7518;DHT22;3800;48.922;9.444;2023-04-07T02:16:29;6.50;99.90
7518;DHT22;3800;48.922;9.444;2023-04-07T02:18:57;6.50;99.90
7518;DHT22;3800;48.922;9.444;2023-04-07T02:21:26;6.50;99.90
7518;DHT22;3800;48.922;9.444;2023-04-07T02:23:55;6.40;99.90
7518;DHT22;3800;48.922;9.444;2023-04-07T02:26:23;6.40;99.90
7518;DHT22;3800;48.922;9.444;2023-04-07T02:28:51;6.40;99.90
7518;DHT22;3800;48.922;9.444;2023-04-07T02:31:19;6.30;99.90
7518;DHT22;3800;48.922;9.444;2023-04-07T02:33:47;6.20;99.90
7518;DHT22;3800;48.922;9.444;2023-04-07T02:36:16;6.30;99.90
7518;DHT22;3800;48.922;9.444;2023-04-07T02:38:44;6.20;99.90
7518;DHT22;3800;48.922;9.444;2023-04-07T02:41:12;6.30;99.90
7518;DHT22;3800;48.922;9.444;2023-04-07T02:43:41;6.30;99.90
7518;DHT22;3800;48.922;9.444;2023-04-07T02:46:09;6.30;99.90
7518;DHT22;3800;48.922;9.444;2023-04-07T02:48:37;6.30;99.90
7518;DHT22;3800;48.922;9.444;2023-04-07T02:51:05;6.20;99.90
7518;DHT22;3800;48.922;9.444;2023-04-07T02:53:34;6.30;99.90
7518;DHT22;3800;48.922;9.444;2023-04-07T02:56:02;6.30;99.90
7518;DHT22;3800;48.922;9.444;2023-04-07T02:58:30;6.30;99.90
7518;DHT22;3800;48.922;9.444;2023-04-07T03:00:58;6.30;99.90
7518;DHT22;3800;48.922;9.444;2023-04-07T03:03:27;6.40;99.90
7518;DHT22;3800;48.922;9.444;2023-04-07T03:05:55;6.30;99.90
7518;DHT22;3800;48.922;9.444;2023-04-07T03:08:23;6.30;99.90
7518;DHT22;3800;48.922;9.444;2023-04-07T03:10:51;6.30;99.90
7518;DHT22;3800;48.922;9.444;2023-04-07T03:13:20;6.30;99.90
7518;DHT22;3800;48.922;9.444;2023-04-07T03:15:48;6.30;99.90
7518;DHT22;3800;48.922;9.444;2023-04-07T03:18:16;6.30;99.90
7518;DHT22;3800;48.922;9.444;2023-04-07T03:20:46;6.30;99.90
7518;DHT22;3800;48.922;9.444;2023-04-07T03:23:13;6.30;99.90
7518;DHT22;3800;48.922;9.444;2023-04-07T03:25:42;6.30;99.90
7518;DHT22;3800;48.922;9.444;2023-04-07T03:28:09;6.20;99.90
7518;DHT22;3800;48.922;9.444;2023-04-07T03:30:37;6.20;99.90
7518;DHT22;3800;48.922;9.444;2023-04-07T03:33:06;6.20;99.90
7518;DHT22;3800;48.922;9.444;2023-04-07T03:35:34;6.20;99.90
7518;DHT22;3800;48.922;9.444;2023-04-07T03:38:02;6.20;99.90
7518;DHT22;3800;48.922;9.444;2023-04-07T03:40:30;6.20;99.90
7518;DHT22;3800;48.922;9.444;2023-04-07T03:42:59;6.20;99.90
7518;DHT22;3800;48.922;9.444;2023-04-07T03:45:27;6.20;99.90
7518;DHT22;3800;48.922;9.444;2023-04-07T03:47:55;6.10;99.90
7518;DHT22;3800;48.922;9.444;2023-04-07T03:50:23;6.20;99.90
7518;DHT22;3800;48.922;9.444;2023-04-07T03:52:52;6.20;99.90
7518;DHT22;3800;48.922;9.444;2023-04-07T03:55:20;6.10;99.90
7518;DHT22;3800;48.922;9.444;2023-04-07T03:57:48;6.10;99.90
7518;DHT22;3800;48.922;9.444;2023-04-07T04:00:17;6.10;99.90
7518;DHT22;3800;48.922;9.444;2023-04-07T04:02:45;6.10;99.90
7518;DHT22;3800;48.922;9.444;2023-04-07T04:05:13;6.10;99.90
7518;DHT22;3800;48.922;9.444;2023-04-07T04:07:41;6.10;99.90
7518;DHT22;3800;48.922;9.444;2023-04-07T04:10:10;6.10;99.90
7518;DHT22;3800;48.922;9.444;2023-04-07T04:12:38;6.10;99.90
7518;DHT22;3800;48.922;9.444;2023-04-07T04:15:06;6.10;99.90
7518;DHT22;3800;48.922;9.444;2023-04-07T04:17:35;6.10;99.90
7518;DHT22;3800;48.922;9.444;2023-04-07T04:20:04;6.00;99.90
7518;DHT22;3800;48.922;9.444;2023-04-07T04:22:33;6.00;99.90
7518;DHT22;3800;48.922;9.444;2023-04-07T04:25:01;6.10;99.90
7518;DHT22;3800;48.922;9.444;2023-04-07T04:27:29;6.00;99.90
7518;DHT22;3800;48.922;9.444;2023-04-07T04:29:58;6.00;99.90
7518;DHT22;3800;48.922;9.444;2023-04-07T04:32:26;6.00;99.90
7518;DHT22;3800;48.922;9.444;2023-04-07T04:34:55;6.10;99.90
7518;DHT22;3800;48.922;9.444;2023-04-07T04:37:23;6.10;99.90
7518;DHT22;3800;48.922;9.444;2023-04-07T04:39:51;6.10;99.90
7518;DHT22;3800;48.922;9.444;2023-04-07T04:42:19;6.10;99.90
7518;DHT22;3800;48.922;9.444;2023-04-07T04:44:48;6.10;99.90
7518;DHT22;3800;48.922;9.444;2023-04-07T04:47:16;6.10;99.90
7518;DHT22;3800;48.922;9.444;2023-04-07T04:49:44;6.10;99.90
7518;DHT22;3800;48.922;9.444;2023-04-07T04:52:12;6.10;99.90
7518;DHT22;3800;48.922;9.444;2023-04-07T04:54:41;6.10;99.90
7518;DHT22;3800;48.922;9.444;2023-04-07T04:57:09;6.10;99.90
7518;DHT22;3800;48.922;9.444;2023-04-07T04:59:37;6.10;99.90
7518;DHT22;3800;48.922;9.444;2023-04-07T05:02:05;6.10;99.90
7518;DHT22;3800;48.922;9.444;2023-04-07T05:04:34;6.10;99.90
7518;DHT22;3800;48.922;9.444;2023-04-07T05:07:02;6.10;99.90
7518;DHT22;3800;48.922;9.444;2023-04-07T05:09:30;6.00;99.90
7518;DHT22;3800;48.922;9.444;2023-04-07T05:11:58;6.00;99.90
7518;DHT22;3800;48.922;9.444;2023-04-07T05:14:27;6.00;99.90
7518;DHT22;3800;48.922;9.444;2023-04-07T05:16:55;6.00;99.90
7518;DHT22;3800;48.922;9.444;2023-04-07T05:19:23;6.10;99.90
7518;DHT22;3800;48.922;9.444;2023-04-07T05:21:52;6.10;99.90
7518;DHT22;3800;48.922;9.444;2023-04-07T05:24:20;6.10;99.90
7518;DHT22;3800;48.922;9.444;2023-04-07T05:26:48;6.10;99.90
7518;DHT22;3800;48.922;9.444;2023-04-07T05:29:16;6.10;99.90
7518;DHT22;3800;48.922;9.444;2023-04-07T05:31:45;6.10;99.90
7518;DHT22;3800;48.922;9.444;2023-04-07T05:34:13;6.10;99.90
7518;DHT22;3800;48.922;9.444;2023-04-07T05:36:41;6.10;99.90
7518;DHT22;3800;48.922;9.444;2023-04-07T05:39:09;6.10;99.90
7518;DHT22;3800;48.922;9.444;2023-04-07T05:41:38;6.10;99.90
7518;DHT22;3800;48.922;9.444;2023-04-07T05:44:07;6.10;99.90
7518;DHT22;3800;48.922;9.444;2023-04-07T05:46:35;6.10;99.90
7518;DHT22;3800;48.922;9.444;2023-04-07T05:49:03;6.10;99.90
7518;DHT22;3800;48.922;9.444;2023-04-07T05:51:31;6.10;99.90
7518;DHT22;3800;48.922;9.444;2023-04-07T05:54:00;6.10;99.90
7518;DHT22;3800;48.922;9.444;2023-04-07T05:56:28;6.10;99.90
7518;DHT22;3800;48.922;9.444;2023-04-07T05:58:56;6.10;99.90
7518;DHT22;3800;48.922;9.444;2023-04-07T06:01:24;6.20;99.90
7518;DHT22;3800;48.922;9.444;2023-04-07T06:03:53;6.20;99.90
7518;DHT22;3800;48.922;9.444;2023-04-07T06:06:21;6.20;99.90
7518;DHT22;3800;48.922;9.444;2023-04-07T06:08:49;6.20;99.90
7518;DHT22;3800;48.922;9.444;2023-04-07T06:11:18;6.20;99.90
7518;DHT22;3800;48.922;9.444;2023-04-07T06:13:46;6.20;99.90
7518;DHT22;3800;48.922;9.444;2023-04-07T06:16:14;6.20;99.90
7518;DHT22;3800;48.922;9.444;2023-04-07T06:18:42;6.30;99.90
7518;DHT22;3800;48.922;9.444;2023-04-07T06:21:11;6.30;99.90
7518;DHT22;3800;48.922;9.444;2023-04-07T06:23:39;6.30;99.90
7518;DHT22;3800;48.922;9.444;2023-04-07T06:26:09;6.30;99.90
7518;DHT22;3800;48.922;9.444;2023-04-07T06:28:37;6.30;99.90
7518;DHT22;3800;48.922;9.444;2023-04-07T06:31:07;6.40;99.90
7518;DHT22;3800;48.922;9.444;2023-04-07T06:33:34;6.40;99.90
7518;DHT22;3800;48.922;9.444;2023-04-07T06:36:03;6.40;99.90
7518;DHT22;3800;48.922;9.444;2023-04-07T06:38:31;6.40;99.90
7518;DHT22;3800;48.922;9.444;2023-04-07T06:40:59;6.40;99.90
7518;DHT22;3800;48.922;9.444;2023-04-07T06:43:28;6.50;99.90
7518;DHT22;3800;48.922;9.444;2023-04-07T06:45:57;6.50;99.90
7518;DHT22;3800;48.922;9.444;2023-04-07T06:48:25;6.50;99.90
7518;DHT22;3800;48.922;9.444;2023-04-07T06:50:54;6.50;99.90
7518;DHT22;3800;48.922;9.444;2023-04-07T06:53:22;6.50;99.90
7518;DHT22;3800;48.922;9.444;2023-04-07T06:55:50;6.50;99.90
7518;DHT22;3800;48.922;9.444;2023-04-07T06:58:19;6.60;99.90
7518;DHT22;3800;48.922;9.444;2023-04-07T07:00:47;6.70;99.90
7518;DHT22;3800;48.922;9.444;2023-04-07T07:03:15;6.70;99.90
7518;DHT22;3800;48.922;9.444;2023-04-07T07:05:43;6.80;99.90
7518;DHT22;3800;48.922;9.444;2023-04-07T07:08:12;6.80;99.90
7518;DHT22;3800;48.922;9.444;2023-04-07T07:10:40;6.90;99.90
7518;DHT22;3800;48.922;9.444;2023-04-07T07:13:08;7.00;99.90
7518;DHT22;3800;48.922;9.444;2023-04-07T07:15:36;7.00;99.90
7518;DHT22;3800;48.922;9.444;2023-04-07T07:18:05;7.00;99.90
7518;DHT22;3800;48.922;9.444;2023-04-07T07:20:33;7.10;99.90
7518;DHT22;3800;48.922;9.444;2023-04-07T07:23:01;7.10;99.90
7518;DHT22;3800;48.922;9.444;2023-04-07T07:25:29;7.10;99.90
7518;DHT22;3800;48.922;9.444;2023-04-07T07:27:58;7.20;99.90
7518;DHT22;3800;48.922;9.444;2023-04-07T07:30:26;7.20;99.90
7518;DHT22;3800;48.922;9.444;2023-04-07T07:32:54;7.30;99.90
7518;DHT22;3800;48.922;9.444;2023-04-07T07:35:23;7.30;99.90
7518;DHT22;3800;48.922;9.444;2023-04-07T07:37:51;7.40;99.90
7518;DHT22;3800;48.922;9.444;2023-04-07T07:40:19;7.50;99.90
7518;DHT22;3800;48.922;9.444;2023-04-07T07:42:47;7.50;99.90
7518;DHT22;3800;48.922;9.444;2023-04-07T07:45:16;7.60;99.90
7518;DHT22;3800;48.922;9.444;2023-04-07T07:47:44;7.60;99.90
7518;DHT22;3800;48.922;9.444;2023-04-07T07:50:12;7.70;99.90
7518;DHT22;3800;48.922;9.444;2023-04-07T07:52:40;7.70;99.90
7518;DHT22;3800;48.922;9.444;2023-04-07T07:55:10;7.80;99.90
7518;DHT22;3800;48.922;9.444;2023-04-07T07:57:37;7.80;99.90
7518;DHT22;3800;48.922;9.444;2023-04-07T08:00:06;7.90;99.90
7518;DHT22;3800;48.922;9.444;2023-04-07T08:02:35;8.00;99.90
7518;DHT22;3800;48.922;9.444;2023-04-07T08:05:03;8.00;99.90
7518;DHT22;3800;48.922;9.444;2023-04-07T08:07:31;8.10;99.90
7518;DHT22;3800;48.922;9.444;2023-04-07T08:10:00;8.20;99.90
7518;DHT22;3800;48.922;9.444;2023-04-07T08:12:28;8.30;99.90
7518;DHT22;3800;48.922;9.444;2023-04-07T08:14:56;8.40;99.90
7518;DHT22;3800;48.922;9.444;2023-04-07T08:17:24;8.50;99.90
7518;DHT22;3800;48.922;9.444;2023-04-07T08:19:53;8.60;99.90
7518;DHT22;3800;48.922;9.444;2023-04-07T08:22:22;8.60;99.90
7518;DHT22;3800;48.922;9.444;2023-04-07T08:24:50;8.70;99.90
7518;DHT22;3800;48.922;9.444;2023-04-07T08:27:18;8.70;99.90
7518;DHT22;3800;48.922;9.444;2023-04-07T08:30:04;8.80;99.90
7518;DHT22;3800;48.922;9.444;2023-04-07T08:32:38;9.00;99.90
7518;DHT22;3800;48.922;9.444;2023-04-07T08:35:05;9.00;99.90
7518;DHT22;3800;48.922;9.444;2023-04-07T08:37:34;9.00;99.90
7518;DHT22;3800;48.922;9.444;2023-04-07T08:40:03;9.30;99.90
7518;DHT22;3800;48.922;9.444;2023-04-07T08:42:32;9.30;99.90
7518;DHT22;3800;48.922;9.444;2023-04-07T08:45:02;9.50;99.90
7518;DHT22;3800;48.922;9.444;2023-04-07T08:47:30;9.60;99.90
7518;DHT22;3800;48.922;9.444;2023-04-07T08:50:01;9.70;99.90
7518;DHT22;3800;48.922;9.444;2023-04-07T08:52:34;9.70;99.90
7518;DHT22;3800;48.922;9.444;2023-04-07T08:55:01;9.80;99.90
7518;DHT22;3800;48.922;9.444;2023-04-07T08:57:29;9.80;99.90
7518;DHT22;3800;48.922;9.444;2023-04-07T08:59:58;10.00;99.90
7518;DHT22;3800;48.922;9.444;2023-04-07T09:02:29;9.90;99.90
7518;DHT22;3800;48.922;9.444;2023-04-07T09:04:57;10.10;99.90
7518;DHT22;3800;48.922;9.444;2023-04-07T09:07:25;10.10;99.90
7518;DHT22;3800;48.922;9.444;2023-04-07T09:09:54;10.10;99.90
7518;DHT22;3800;48.922;9.444;2023-04-07T09:12:23;10.10;99.90
7518;DHT22;3800;48.922;9.444;2023-04-07T09:14:51;10.00;99.90
7518;DHT22;3800;48.922;9.444;2023-04-07T09:17:19;10.00;99.90
7518;DHT22;3800;48.922;9.444;2023-04-07T09:19:47;10.00;99.90
7518;DHT22;3800;48.922;9.444;2023-04-07T09:22:23;10.00;99.90
7518;DHT22;3800;48.922;9.444;2023-04-07T09:24:44;10.10;99.90
7518;DHT22;3800;48.922;9.444;2023-04-07T09:27:14;10.10;99.90
7518;DHT22;3800;48.922;9.444;2023-04-07T09:29:42;10.20;99.90
7518;DHT22;3800;48.922;9.444;2023-04-07T09:32:09;10.20;99.90
7518;DHT22;3800;48.922;9.444;2023-04-07T09:34:38;10.30;99.90
7518;DHT22;3800;48.922;9.444;2023-04-07T09:37:06;10.30;99.90
7518;DHT22;3800;48.922;9.444;2023-04-07T09:39:51;10.30;99.90
7518;DHT22;3800;48.922;9.444;2023-04-07T09:42:18;10.30;99.90
7518;DHT22;3800;48.922;9.444;2023-04-07T09:44:46;10.30;99.90
7518;DHT22;3800;48.922;9.444;2023-04-07T09:47:14;10.30;99.90
7518;DHT22;3800;48.922;9.444;2023-04-07T09:49:52;10.30;99.90
7518;DHT22;3800;48.922;9.444;2023-04-07T09:52:21;10.30;99.90
7518;DHT22;3800;48.922;9.444;2023-04-07T09:54:49;10.30;99.90
7518;DHT22;3800;48.922;9.444;2023-04-07T09:57:17;10.30;99.90
7518;DHT22;3800;48.922;9.444;2023-04-07T09:59:45;10.30;99.90
7518;DHT22;3800;48.922;9.444;2023-04-07T10:02:15;10.30;99.90
7518;DHT22;3800;48.922;9.444;2023-04-07T10:04:43;10.30;99.90
7518;DHT22;3800;48.922;9.444;2023-04-07T10:07:11;10.40;99.90
7518;DHT22;3800;48.922;9.444;2023-04-07T10:09:39;10.40;99.90
7518;DHT22;3800;48.922;9.444;2023-04-07T10:12:08;10.40;99.90
7518;DHT22;3800;48.922;9.444;2023-04-07T10:14:36;10.50;99.90
7518;DHT22;3800;48.922;9.444;2023-04-07T10:17:04;10.60;99.90
7518;DHT22;3800;48.922;9.444;2023-04-07T10:19:33;10.60;99.90
7518;DHT22;3800;48.922;9.444;2023-04-07T10:22:01;10.60;99.90
7518;DHT22;3800;48.922;9.444;2023-04-07T10:24:35;10.60;99.90
7518;DHT22;3800;48.922;9.444;2023-04-07T10:27:03;10.60;99.90
7518;DHT22;3800;48.922;9.444;2023-04-07T10:29:33;10.60;99.90
7518;DHT22;3800;48.922;9.444;2023-04-07T10:32:00;10.80;99.90
7518;DHT22;3800;48.922;9.444;2023-04-07T10:35:06;10.80;99.90
7518;DHT22;3800;48.922;9.444;2023-04-07T10:37:25;10.90;99.90
7518;DHT22;3800;48.922;9.444;2023-04-07T10:40:32;10.80;99.90
7518;DHT22;3800;48.922;9.444;2023-04-07T10:42:58;10.80;99.90
7518;DHT22;3800;48.922;9.444;2023-04-07T10:45:50;10.90;99.90
7518;DHT22;3800;48.922;9.444;2023-04-07T10:48:19;11.00;99.90
7518;DHT22;3800;48.922;9.444;2023-04-07T10:51:12;11.00;99.90
7518;DHT22;3800;48.922;9.444;2023-04-07T10:59:26;11.20;99.90
7518;DHT22;3800;48.922;9.444;2023-04-07T11:04:54;11.40;99.90
7518;DHT22;3800;48.922;9.444;2023-04-07T11:07:41;11.50;99.90
7518;DHT22;3800;48.922;9.444;2023-04-07T11:09:50;11.60;99.90
7518;DHT22;3800;48.922;9.444;2023-04-07T11:12:22;11.70;99.90
7518;DHT22;3800;48.922;9.444;2023-04-07T11:14:51;11.70;99.90
7518;DHT22;3800;48.922;9.444;2023-04-07T11:17:19;11.70;99.90
7518;DHT22;3800;48.922;9.444;2023-04-07T11:19:52;11.90;99.90
7518;DHT22;3800;48.922;9.444;2023-04-07T11:22:20;11.90;99.90
7518;DHT22;3800;48.922;9.444;2023-04-07T11:24:48;11.90;99.90
7518;DHT22;3800;48.922;9.444;2023-04-07T11:27:17;11.90;99.90
7518;DHT22;3800;48.922;9.444;2023-04-07T11:29:45;11.80;99.90
7518;DHT22;3800;48.922;9.444;2023-04-07T11:32:13;11.80;99.90
7518;DHT22;3800;48.922;9.444;2023-04-07T11:34:41;11.80;99.90
7518;DHT22;3800;48.922;9.444;2023-04-07T11:37:19;12.00;99.90
7518;DHT22;3800;48.922;9.444;2023-04-07T11:39:54;12.00;99.90
7518;DHT22;3800;48.922;9.444;2023-04-07T11:42:39;12.10;99.90
7518;DHT22;3800;48.922;9.444;2023-04-07T11:45:15;12.10;99.90
7518;DHT22;3800;48.922;9.444;2023-04-07T11:47:43;12.10;99.90
7518;DHT22;3800;48.922;9.444;2023-04-07T11:50:11;12.20;99.90
7518;DHT22;3800;48.922;9.444;2023-04-07T11:52:41;12.30;99.90
7518;DHT22;3800;48.922;9.444;2023-04-07T11:55:19;12.30;99.90
7518;DHT22;3800;48.922;9.444;2023-04-07T11:57:47;12.30;99.90
7518;DHT22;3800;48.922;9.444;2023-04-07T12:00:15;12.30;99.90
7518;DHT22;3800;48.922;9.444;2023-04-07T12:02:46;12.40;99.90
7518;DHT22;3800;48.922;9.444;2023-04-07T12:05:15;12.40;99.90
7518;DHT22;3800;48.922;9.444;2023-04-07T12:07:51;12.40;99.90
7518;DHT22;3800;48.922;9.444;2023-04-07T12:10:18;12.40;99.90
7518;DHT22;3800;48.922;9.444;2023-04-07T12:12:46;12.40;99.90
7518;DHT22;3800;48.922;9.444;2023-04-07T12:15:14;12.30;99.90
7518;DHT22;3800;48.922;9.444;2023-04-07T12:17:45;12.30;99.90
7518;DHT22;3800;48.922;9.444;2023-04-07T12:20:14;12.30;99.90
7518;DHT22;3800;48.922;9.444;2023-04-07T12:22:42;12.40;99.90
7518;DHT22;3800;48.922;9.444;2023-04-07T12:25:11;12.30;99.90
7518;DHT22;3800;48.922;9.444;2023-04-07T12:27:40;12.40;99.90
7518;DHT22;3800;48.922;9.444;2023-04-07T12:30:08;12.40;99.90
7518;DHT22;3800;48.922;9.444;2023-04-07T12:32:37;12.40;99.90
7518;DHT22;3800;48.922;9.444;2023-04-07T12:35:05;12.40;99.90
7518;DHT22;3800;48.922;9.444;2023-04-07T12:37:34;12.40;99.90
7518;DHT22;3800;48.922;9.444;2023-04-07T12:40:02;12.40;99.90
7518;DHT22;3800;48.922;9.444;2023-04-07T12:42:30;12.40;99.90
7518;DHT22;3800;48.922;9.444;2023-04-07T12:44:59;12.40;99.90
7518;DHT22;3800;48.922;9.444;2023-04-07T12:47:28;12.30;99.90
7518;DHT22;3800;48.922;9.444;2023-04-07T12:49:56;12.40;99.90
7518;DHT22;3800;48.922;9.444;2023-04-07T12:52:24;12.40;99.90
7518;DHT22;3800;48.922;9.444;2023-04-07T12:54:53;12.30;99.90
7518;DHT22;3800;48.922;9.444;2023-04-07T12:57:21;12.20;99.90
7518;DHT22;3800;48.922;9.444;2023-04-07T12:59:49;12.20;99.90
7518;DHT22;3800;48.922;9.444;2023-04-07T13:02:17;12.00;99.90
7518;DHT22;3800;48.922;9.444;2023-04-07T13:04:47;11.90;99.90
7518;DHT22;3800;48.922;9.444;2023-04-07T13:07:15;11.90;99.90
7518;DHT22;3800;48.922;9.444;2023-04-07T13:09:44;11.80;99.90
7518;DHT22;3800;48.922;9.444;2023-04-07T13:12:12;11.80;99.90
7518;DHT22;3800;48.922;9.444;2023-04-07T13:14:41;11.70;99.90
7518;DHT22;3800;48.922;9.444;2023-04-07T13:17:10;11.70;99.90
7518;DHT22;3800;48.922;9.444;2023-04-07T13:19:38;11.70;99.90
7518;DHT22;3800;48.922;9.444;2023-04-07T13:22:06;11.70;99.90
7518;DHT22;3800;48.922;9.444;2023-04-07T13:24:34;11.60;99.90
7518;DHT22;3800;48.922;9.444;2023-04-07T13:27:04;11.60;99.90
7518;DHT22;3800;48.922;9.444;2023-04-07T13:29:35;11.60;99.90
7518;DHT22;3800;48.922;9.444;2023-04-07T13:32:07;11.60;99.90
7518;DHT22;3800;48.922;9.444;2023-04-07T13:34:40;11.60;99.90
7518;DHT22;3800;48.922;9.444;2023-04-07T13:37:08;11.60;99.90
7518;DHT22;3800;48.922;9.444;2023-04-07T13:39:36;11.60;99.90
7518;DHT22;3800;48.922;9.444;2023-04-07T13:42:05;11.70;99.90
7518;DHT22;3800;48.922;9.444;2023-04-07T13:44:34;11.70;99.90
7518;DHT22;3800;48.922;9.444;2023-04-07T13:47:02;11.70;99.90
7518;DHT22;3800;48.922;9.444;2023-04-07T13:49:31;11.90;99.90
7518;DHT22;3800;48.922;9.444;2023-04-07T13:51:59;11.80;99.90
7518;DHT22;3800;48.922;9.444;2023-04-07T13:54:28;11.90;99.90
7518;DHT22;3800;48.922;9.444;2023-04-07T13:56:56;11.90;99.90
7518;DHT22;3800;48.922;9.444;2023-04-07T13:59:24;12.00;99.90
7518;DHT22;3800;48.922;9.444;2023-04-07T14:01:52;12.00;99.90
7518;DHT22;3800;48.922;9.444;2023-04-07T14:04:21;12.00;99.90
7518;DHT22;3800;48.922;9.444;2023-04-07T14:06:49;12.00;99.90
7518;DHT22;3800;48.922;9.444;2023-04-07T14:09:17;12.10;99.90
7518;DHT22;3800;48.922;9.444;2023-04-07T14:11:46;12.40;99.90
7518;DHT22;3800;48.922;9.444;2023-04-07T14:14:14;12.30;99.90
7518;DHT22;3800;48.922;9.444;2023-04-07T14:16:44;12.60;99.90
7518;DHT22;3800;48.922;9.444;2023-04-07T14:19:12;12.60;99.90
7518;DHT22;3800;48.922;9.444;2023-04-07T14:21:40;12.90;99.90
7518;DHT22;3800;48.922;9.444;2023-04-07T14:24:08;13.10;99.90
7518;DHT22;3800;48.922;9.444;2023-04-07T14:26:37;13.20;99.90
7518;DHT22;3800;48.922;9.444;2023-04-07T14:29:05;13.30;99.90
7518;DHT22;3800;48.922;9.444;2023-04-07T14:31:33;13.40;99.90
7518;DHT22;3800;48.922;9.444;2023-04-07T14:34:01;13.40;99.90
7518;DHT22;3800;48.922;9.444;2023-04-07T14:36:30;13.40;99.90
7518;DHT22;3800;48.922;9.444;2023-04-07T14:38:58;13.30;99.90
7518;DHT22;3800;48.922;9.444;2023-04-07T14:41:26;13.10;99.90
7518;DHT22;3800;48.922;9.444;2023-04-07T14:43:54;13.20;99.90
7518;DHT22;3800;48.922;9.444;2023-04-07T14:46:24;13.10;99.90
7518;DHT22;3800;48.922;9.444;2023-04-07T14:48:54;13.10;99.90
7518;DHT22;3800;48.922;9.444;2023-04-07T14:51:22;13.10;99.90
7518;DHT22;3800;48.922;9.444;2023-04-07T14:53:50;13.10;99.90
7518;DHT22;3800;48.922;9.444;2023-04-07T14:56:19;13.10;99.90
7518;DHT22;3800;48.922;9.444;2023-04-07T14:58:47;13.00;99.90
7518;DHT22;3800;48.922;9.444;2023-04-07T15:01:15;12.80;99.90
7518;DHT22;3800;48.922;9.444;2023-04-07T15:03:43;12.70;99.90
7518;DHT22;3800;48.922;9.444;2023-04-07T15:06:12;12.60;99.90
7518;DHT22;3800;48.922;9.444;2023-04-07T15:08:40;12.40;99.90
7518;DHT22;3800;48.922;9.444;2023-04-07T15:11:08;12.30;99.90
7518;DHT22;3800;48.922;9.444;2023-04-07T15:13:36;12.10;99.90
7518;DHT22;3800;48.922;9.444;2023-04-07T15:16:05;12.00;99.90
7518;DHT22;3800;48.922;9.444;2023-04-07T15:18:34;11.90;99.90
7518;DHT22;3800;48.922;9.444;2023-04-07T15:21:03;11.80;99.90
7518;DHT22;3800;48.922;9.444;2023-04-07T15:23:32;11.80;99.90
7518;DHT22;3800;48.922;9.444;2023-04-07T15:26:00;11.80;99.90
7518;DHT22;3800;48.922;9.444;2023-04-07T15:28:28;11.80;99.90
7518;DHT22;3800;48.922;9.444;2023-04-07T15:30:58;11.70;99.90
7518;DHT22;3800;48.922;9.444;2023-04-07T15:33:25;11.70;99.90
7518;DHT22;3800;48.922;9.444;2023-04-07T15:35:53;11.70;99.90
7518;DHT22;3800;48.922;9.444;2023-04-07T15:38:21;11.50;99.90
7518;DHT22;3800;48.922;9.444;2023-04-07T15:40:51;11.50;99.90
7518;DHT22;3800;48.922;9.444;2023-04-07T15:43:19;11.50;99.90
7518;DHT22;3800;48.922;9.444;2023-04-07T15:45:48;11.50;99.90
7518;DHT22;3800;48.922;9.444;2023-04-07T15:48:16;11.40;99.90
7518;DHT22;3800;48.922;9.444;2023-04-07T15:50:45;11.50;99.90
7518;DHT22;3800;48.922;9.444;2023-04-07T15:53:13;11.50;99.90
7518;DHT22;3800;48.922;9.444;2023-04-07T15:55:42;11.50;99.90
7518;DHT22;3800;48.922;9.444;2023-04-07T15:58:11;11.50;99.90
7518;DHT22;3800;48.922;9.444;2023-04-07T16:00:40;11.50;99.90
7518;DHT22;3800;48.922;9.444;2023-04-07T16:03:08;11.50;99.90
7518;DHT22;3800;48.922;9.444;2023-04-07T16:05:36;11.50;99.90
7518;DHT22;3800;48.922;9.444;2023-04-07T16:08:04;11.60;99.90
7518;DHT22;3800;48.922;9.444;2023-04-07T16:10:33;11.60;99.90
7518;DHT22;3800;48.922;9.444;2023-04-07T16:13:01;11.70;99.90
7518;DHT22;3800;48.922;9.444;2023-04-07T16:15:29;11.70;99.90
7518;DHT22;3800;48.922;9.444;2023-04-07T16:17:58;11.60;99.90
7518;DHT22;3800;48.922;9.444;2023-04-07T16:20:26;11.60;99.90
7518;DHT22;3800;48.922;9.444;2023-04-07T16:22:55;11.60;99.90
7518;DHT22;3800;48.922;9.444;2023-04-07T16:25:23;11.60;99.90
7518;DHT22;3800;48.922;9.444;2023-04-07T16:27:51;11.60;99.90
7518;DHT22;3800;48.922;9.444;2023-04-07T16:30:20;11.60;99.90
7518;DHT22;3800;48.922;9.444;2023-04-07T16:32:50;11.60;99.90
7518;DHT22;3800;48.922;9.444;2023-04-07T16:35:19;11.50;99.90